Time;durP1;ratioP1;P1;durP2;ratioP2;P2;SDS_P1;SDS_P2;PMS_P1;PMS_P2;Temp;Humidity;BMP_temperature;BMP_pressure;BME280_temperature;BME280_humidity;BME280_pressure;Samples;Min_cycle;Max_cycle;Signal;HPM_P1;HPM_P2
2021/05/09 00:01:27;;;;;;;6.38;3.80;;;;;;;18.16;49.85;100601.75;4929205;28;119543;-69
2021/05/09 00:03:55;;;;;;;7.55;3.70;;;;;;;18.15;49.79;100597.38;4931473;28;119068;-68
2021/05/09 00:06:22;;;;;;;7.90;3.70;;;;;;;18.15;49.82;100600.06;4927572;28;124731;-68
2021/05/09 00:08:50;;;;;;;9.10;3.78;;;;;;;18.13;49.90;100596.66;4931725;28;123799;-68
2021/05/09 00:11:17;;;;;;;6.75;3.60;;;;;;;18.12;49.92;100589.59;4931090;28;120487;-69
2021/05/09 00:13:44;;;;;;;9.00;3.70;;;;;;;18.12;49.95;100589.59;4930315;28;120117;-68
2021/05/09 00:16:10;;;;;;;8.15;3.67;;;;;;;18.09;49.94;100586.19;4930125;28;123881;-68
2021/05/09 00:18:37;;;;;;;6.70;3.65;;;;;;;18.11;49.94;100587.88;4928201;28;124032;-69
2021/05/09 00:21:05;;;;;;;5.30;3.22;;;;;;;18.09;50.02;100583.50;4931603;28;119206;-69
2021/05/09 00:23:33;;;;;;;6.03;3.65;;;;;;;18.07;49.99;100566.69;4930544;28;118751;-68
2021/05/09 00:25:59;;;;;;;8.07;3.92;;;;;;;18.07;50.00;100580.09;4930340;28;124192;-69
2021/05/09 00:28:26;;;;;;;7.63;3.58;;;;;;;18.06;50.12;100570.38;4930290;28;124161;-69
2021/05/09 00:30:52;;;;;;;5.43;3.22;;;;;;;18.06;50.00;100570.38;4928539;28;118889;-68
2021/05/09 00:33:19;;;;;;;7.43;3.40;;;;;;;18.05;50.14;100568.66;4931040;28;118494;-69
2021/05/09 00:35:46;;;;;;;5.72;3.95;;;;;;;18.05;50.18;100568.66;4910431;28;122764;-69
2021/05/09 00:38:13;;;;;;;6.47;3.60;;;;;;;18.04;50.13;100566.91;4930647;28;123716;-69
2021/05/09 00:40:40;;;;;;;8.52;3.92;;;;;;;18.04;50.11;100563.41;4926591;28;117770;-69
2021/05/09 00:43:07;;;;;;;6.00;3.88;;;;;;;18.00;50.21;100560.13;4911643;28;119406;-69
2021/05/09 00:45:39;;;;;;;5.80;3.70;;;;;;;18.00;50.09;100560.13;4908663;28;124454;-73
2021/05/09 00:48:10;;;;;;;7.55;3.60;;;;;;;17.98;50.31;100562.06;4929505;28;123977;-68
2021/05/09 00:50:38;;;;;;;6.10;3.42;;;;;;;17.98;50.44;100556.72;4917900;28;118971;-68
2021/05/09 00:53:08;;;;;;;5.03;3.13;;;;;;;17.97;50.44;100555.03;4915996;28;119215;-68
2021/05/09 00:55:37;;;;;;;6.55;3.30;;;;;;;17.98;50.22;100556.72;4919991;28;123863;-67
2021/05/09 00:58:05;;;;;;;4.72;3.35;;;;;;;17.97;50.23;100549.66;4926341;28;123135;-70
2021/05/09 01:00:33;;;;;;;5.60;3.35;;;;;;;17.96;50.17;100542.59;4944371;28;119477;-67
2021/05/09 01:03:05;;;;;;;6.20;3.60;;;;;;;17.95;50.22;100546.25;4925806;28;119052;-67
2021/05/09 01:05:32;;;;;;;9.77;4.38;;;;;;;17.93;50.27;100542.81;4918107;28;123848;-68
2021/05/09 01:08:00;;;;;;;7.30;4.10;;;;;;;17.91;50.24;100539.41;4925916;28;123913;-68
2021/05/09 01:10:27;;;;;;;7.97;4.22;;;;;;;17.87;50.29;100538.81;4919186;28;118362;-68
2021/05/09 01:12:55;;;;;;;7.65;4.45;;;;;;;17.83;50.15;100541.84;4923203;28;119231;-68
2021/05/09 01:15:22;;;;;;;6.28;4.13;;;;;;;17.78;50.32;100538.69;4909915;28;124105;-68
2021/05/09 01:17:50;;;;;;;8.30;4.75;;;;;;;17.74;50.55;100531.88;4909170;28;123580;-68
2021/05/09 01:20:17;;;;;;;6.75;4.53;;;;;;;17.69;50.49;100525.06;4925295;28;118598;-68
2021/05/09 01:22:44;;;;;;;5.72;4.72;;;;;;;17.65;50.63;100530.75;4912805;28;117841;-68
2021/05/09 01:25:12;;;;;;;8.25;4.65;;;;;;;17.60;50.76;100519.59;4913667;28;123772;-68
2021/05/09 01:27:39;;;;;;;7.60;4.88;;;;;;;17.56;50.79;100523.50;4916998;28;124373;-68
2021/05/09 01:30:09;;;;;;;7.25;4.70;;;;;;;17.51;50.90;100521.16;4928247;28;118462;-68
2021/05/09 01:32:36;;;;;;;8.38;5.10;;;;;;;17.47;50.94;100514.34;4899227;28;117634;-68
2021/05/09 01:35:04;;;;;;;7.10;4.60;;;;;;;17.43;51.05;100512.91;4930067;28;124206;-68
2021/05/09 01:37:31;;;;;;;6.57;4.78;;;;;;;17.40;50.95;100507.78;4927717;28;123835;-68
2021/05/09 01:39:59;;;;;;;8.88;4.78;;;;;;;17.37;51.11;100502.69;4902667;28;118653;-68
2021/05/09 01:42:25;;;;;;;7.88;4.65;;;;;;;17.31;51.17;100504.88;4910939;28;119478;-68
2021/05/09 01:44:56;;;;;;;7.47;4.90;;;;;;;17.26;51.32;100495.50;4898325;28;123245;-68
2021/05/09 01:47:25;;;;;;;7.43;5.13;;;;;;;17.23;51.41;100495.72;4919651;28;124378;-68
2021/05/09 01:49:52;;;;;;;7.65;5.07;;;;;;;17.20;51.57;100502.19;4915501;28;119546;-68
2021/05/09 01:52:21;;;;;;;6.75;4.65;;;;;;;17.17;51.63;100491.69;4929801;28;120350;-67
2021/05/09 01:54:48;;;;;;;10.82;4.93;;;;;;;17.15;51.80;100488.28;4916861;28;124780;-69
2021/05/09 01:57:15;;;;;;;6.93;4.63;;;;;;;17.11;51.71;100492.19;4927633;28;123349;-68
2021/05/09 01:59:46;;;;;;;7.80;4.93;;;;;;;17.08;51.88;100492.41;4929332;28;119422;-68
2021/05/09 02:02:13;;;;;;;7.15;4.72;;;;;;;17.06;51.86;100489.00;4928248;28;118850;-68
2021/05/09 02:04:46;;;;;;;7.43;5.20;;;;;;;17.02;51.89;100490.22;4928102;28;123251;-67
2021/05/09 02:07:16;;;;;;;9.20;4.88;;;;;;;16.98;51.98;100488.78;4928084;28;123745;-67
2021/05/09 02:09:47;;;;;;;7.30;5.03;;;;;;;16.97;52.06;100492.41;4923825;28;119976;-68
2021/05/09 02:12:16;;;;;;;8.73;5.00;;;;;;;16.93;52.04;100489.97;4927841;28;118297;-68
2021/05/09 02:14:48;;;;;;;7.50;5.05;;;;;;;16.89;52.21;100493.84;4911697;28;124079;-68
2021/05/09 02:17:15;;;;;;;7.95;5.22;;;;;;;16.88;52.26;100494.00;4929572;28;123506;-68
2021/05/09 02:19:51;;;;;;;8.45;5.38;;;;;;;16.85;52.19;100487.03;4913406;28;118409;-68
2021/05/09 02:22:23;;;;;;;8.07;5.10;;;;;;;16.82;52.36;100481.94;4917197;28;118146;-68
2021/05/09 02:24:51;;;;;;;10.38;5.07;;;;;;;16.78;52.46;100480.41;4917857;28;124094;-68
2021/05/09 02:27:18;;;;;;;8.43;6.00;;;;;;;16.75;52.38;100475.31;4940475;22;123034;-72
2021/05/09 02:29:45;;;;;;;7.15;4.93;;;;;;;16.72;52.52;100475.53;4927491;28;120219;-73
2021/05/09 02:32:12;;;;;;;6.63;5.18;;;;;;;16.69;52.63;100465.09;4946655;28;118927;-74
2021/05/09 02:34:39;;;;;;;11.70;5.18;;;;;;;16.66;52.62;100465.31;4914807;28;123430;-73
2021/05/09 02:37:08;;;;;;;10.10;5.20;;;;;;;16.62;52.63;100458.50;4944598;28;124227;-74
2021/05/09 02:39:35;;;;;;;8.02;5.00;;;;;;;16.58;52.69;100451.69;4947595;28;120144;-74
2021/05/09 02:42:03;;;;;;;10.02;5.60;;;;;;;16.53;52.77;100455.56;4930928;28;119343;-74
2021/05/09 02:44:30;;;;;;;9.38;5.30;;;;;;;16.48;52.80;100447.06;4919532;28;122665;-73
2021/05/09 02:46:56;;;;;;;9.52;5.53;;;;;;;16.44;52.95;100440.22;4916527;28;123500;-73
2021/05/09 02:49:25;;;;;;;7.75;5.40;;;;;;;16.41;53.12;100445.81;4925859;28;118161;-74
2021/05/09 02:51:53;;;;;;;7.97;5.20;;;;;;;16.37;53.06;100432.78;4934712;28;119182;-74
2021/05/09 02:54:20;;;;;;;7.47;5.70;;;;;;;16.33;53.24;100430.38;4920312;28;123582;-73
2021/05/09 02:56:47;;;;;;;8.57;5.78;;;;;;;16.31;53.32;100439.44;4934600;28;124016;-73
2021/05/09 02:59:14;;;;;;;9.27;5.50;;;;;;;16.29;53.13;100446.72;4937505;28;119809;-73
2021/05/09 03:01:41;;;;;;;9.13;5.53;;;;;;;16.26;53.37;100437.13;4926248;28;118758;-73
2021/05/09 03:04:08;;;;;;;7.90;5.63;;;;;;;16.25;53.46;100437.25;4917897;28;123647;-73
2021/05/09 03:06:35;;;;;;;9.57;5.60;;;;;;;16.22;53.40;100440.13;4947868;28;124065;-74
2021/05/09 03:09:05;;;;;;;10.98;5.82;;;;;;;16.21;53.55;100438.44;4930288;28;119665;-74
2021/05/09 03:11:33;;;;;;;11.20;5.90;;;;;;;16.18;53.58;100444.00;4929281;28;118057;-73
2021/05/09 03:14:00;;;;;;;9.98;6.05;;;;;;;16.15;53.46;100440.59;4905250;28;123357;-73
2021/05/09 03:16:26;;;;;;;7.82;5.97;;;;;;;16.13;53.67;100442.53;4943789;28;124260;-73
2021/05/09 03:18:53;;;;;;;11.02;6.55;;;;;;;16.11;53.81;100444.47;4930481;28;118279;-73
2021/05/09 03:21:21;;;;;;;9.45;6.32;;;;;;;16.10;53.63;100456.13;4948669;28;118919;-73
2021/05/09 03:23:48;;;;;;;8.15;6.03;;;;;;;16.08;53.86;100444.69;4909168;28;123547;-74
2021/05/09 03:26:15;;;;;;;8.77;6.05;;;;;;;16.06;53.81;100441.28;4923208;28;124419;-74
2021/05/09 03:28:41;;;;;;;9.95;6.22;;;;;;;16.04;53.84;100443.22;4924883;28;120712;-73
2021/05/09 03:31:08;;;;;;;7.68;6.05;;;;;;;16.01;53.92;100443.47;4918388;28;119916;-73
2021/05/09 03:33:35;;;;;;;9.05;6.28;;;;;;;15.99;54.10;100444.53;4944340;28;123932;-73
2021/05/09 03:36:02;;;;;;;8.18;6.35;;;;;;;15.98;54.03;100443.69;4947926;28;123931;-73
2021/05/09 03:38:28;;;;;;;8.48;6.68;;;;;;;15.95;54.23;100443.91;4948653;28;119320;-73
2021/05/09 03:40:55;;;;;;;9.45;6.68;;;;;;;15.93;54.11;100437.81;4950539;28;119592;-73
2021/05/09 03:43:21;;;;;;;8.23;6.85;;;;;;;15.91;54.24;100431.75;4913643;28;123944;-74
2021/05/09 03:45:48;;;;;;;9.48;6.65;;;;;;;15.91;54.17;100426.41;4935365;28;123608;-74
2021/05/09 03:48:15;;;;;;;11.05;6.63;;;;;;;15.92;53.98;100428.13;4920762;28;118910;-74
2021/05/09 03:50:41;;;;;;;9.55;6.40;;;;;;;15.90;54.15;100424.72;4929075;28;117988;-73
2021/05/09 03:53:08;;;;;;;8.77;6.50;;;;;;;15.89;54.33;100428.34;4949230;28;124797;-73
2021/05/09 03:55:34;;;;;;;9.63;6.47;;;;;;;15.88;54.29;100415.94;4933139;28;123006;-73
2021/05/09 03:58:01;;;;;;;10.00;7.32;;;;;;;15.87;54.20;100414.25;4929518;28;119149;-73
2021/05/09 04:00:28;;;;;;;10.52;6.43;;;;;;;15.87;54.18;100414.25;4944469;28;119512;-73
2021/05/09 04:02:54;;;;;;;9.30;6.70;;;;;;;15.86;54.26;100409.88;4950066;28;124430;-73
2021/05/09 04:05:21;;;;;;;10.32;6.05;;;;;;;15.84;54.06;100409.13;4914081;28;123757;-73
2021/05/09 04:07:47;;;;;;;8.52;6.45;;;;;;;15.81;54.08;100396.88;4914856;28;118327;-73
2021/05/09 04:10:14;;;;;;;11.95;6.75;;;;;;;15.79;54.31;100392.63;4934900;28;98521;-74
2021/05/09 04:12:41;;;;;;;10.02;6.28;;;;;;;15.76;54.29;100391.88;4950325;28;124529;-73
2021/05/09 04:15:08;;;;;;;10.23;6.70;;;;;;;15.74;54.53;100399.13;4937222;28;124212;-73
2021/05/09 04:17:35;;;;;;;9.43;6.32;;;;;;;15.73;54.77;100386.75;4923802;28;119561;-73
2021/05/09 04:20:03;;;;;;;10.50;6.25;;;;;;;15.72;54.86;100382.34;4930517;28;119892;-73
2021/05/09 04:22:29;;;;;;;11.77;6.22;;;;;;;15.74;54.88;100377.75;4951036;28;124164;-73
2021/05/09 04:24:57;;;;;;;9.70;6.53;;;;;;;15.74;54.86;100375.09;4950521;28;123506;-73
2021/05/09 04:27:23;;;;;;;12.18;6.53;;;;;;;15.75;54.99;100374.16;4932631;28;119285;-73
2021/05/09 04:29:50;;;;;;;12.10;6.47;;;;;;;15.76;54.78;100381.19;4950289;28;119418;-74
2021/05/09 04:32:16;;;;;;;13.43;6.50;;;;;;;15.77;55.00;100388.22;4949891;28;123315;-73
2021/05/09 04:34:43;;;;;;;9.82;6.05;;;;;;;15.77;55.12;100388.22;4950762;28;123757;-73
2021/05/09 04:37:10;;;;;;;10.93;6.57;;;;;;;15.78;55.21;100383.72;4949996;28;119603;-73
2021/05/09 04:39:36;;;;;;;11.75;6.55;;;;;;;15.80;55.21;100383.63;4933191;28;118981;-73
2021/05/09 04:42:03;;;;;;;8.88;6.07;;;;;;;15.82;55.35;100395.88;4949755;28;124832;-73
2021/05/09 04:44:30;;;;;;;10.57;6.15;;;;;;;15.85;55.40;100389.47;4911944;28;123592;-73
2021/05/09 04:46:56;;;;;;;10.25;6.43;;;;;;;15.86;55.19;100393.84;4934533;28;119419;-73
2021/05/09 04:49:23;;;;;;;8.18;6.13;;;;;;;15.88;55.55;100394.56;4928707;28;118166;-73
2021/05/09 04:51:49;;;;;;;8.63;6.18;;;;;;;15.92;55.28;100396.06;4916531;28;124407;-73
2021/05/09 04:54:16;;;;;;;7.45;6.05;;;;;;;15.92;55.38;100391.56;4930210;28;123690;-73
2021/05/09 04:56:42;;;;;;;10.68;6.57;;;;;;;15.95;55.43;100390.50;4920797;28;118521;-73
2021/05/09 04:59:10;;;;;;;10.02;6.35;;;;;;;15.97;55.40;100393.88;4929434;28;118526;-73
2021/05/09 05:01:37;;;;;;;13.05;6.80;;;;;;;16.02;55.62;100385.56;4934769;28;124732;-73
2021/05/09 05:04:04;;;;;;;8.73;5.85;;;;;;;16.06;55.43;100389.69;4935964;28;124113;-73
2021/05/09 05:06:30;;;;;;;12.25;6.10;;;;;;;16.09;55.36;100387.63;4918366;28;120611;-73
2021/05/09 05:08:57;;;;;;;9.18;5.95;;;;;;;16.12;55.52;100384.75;4922827;28;119822;-73
2021/05/09 05:11:23;;;;;;;8.23;5.55;;;;;;;16.17;55.51;100379.03;4924299;28;122830;-73
2021/05/09 05:13:50;;;;;;;7.28;6.07;;;;;;;16.22;55.55;100392.03;4949268;28;124429;-73
2021/05/09 05:16:17;;;;;;;9.75;5.68;;;;;;;16.26;55.40;100378.34;4913046;28;118923;-73
2021/05/09 05:18:43;;;;;;;9.57;5.85;;;;;;;16.31;55.51;100375.31;4949666;28;118961;-73
2021/05/09 05:21:11;;;;;;;9.90;5.80;;;;;;;16.37;55.46;100374.84;4949716;28;124461;-73
2021/05/09 05:23:38;;;;;;;7.10;5.30;;;;;;;16.42;55.61;100383.34;4949692;28;124110;-73
2021/05/09 05:26:05;;;;;;;8.57;5.65;;;;;;;16.48;55.42;100380.22;4949838;28;119380;-74
2021/05/09 05:28:32;;;;;;;8.43;5.20;;;;;;;16.56;55.52;100382.31;4930950;28;118983;-73
2021/05/09 05:30:59;;;;;;;6.25;4.90;;;;;;;16.65;55.74;100383.38;4947005;28;124058;-76
2021/05/09 05:33:35;;;;;;;8.73;5.32;;;;;;;16.72;55.69;100389.97;4926307;28;123922;-75
2021/05/09 05:36:05;;;;;;;8.07;5.07;;;;;;;16.81;55.38;100378.56;4920980;28;118652;-74
2021/05/09 05:38:32;;;;;;;6.18;5.05;;;;;;;16.90;55.27;100383.22;4931527;28;119044;-74
2021/05/09 05:40:58;;;;;;;6.82;4.85;;;;;;;17.00;54.98;100382.47;4929755;28;122803;-73
2021/05/09 05:43:27;;;;;;;6.63;4.60;;;;;;;17.09;55.05;100376.41;4949067;28;124021;-75
2021/05/09 05:45:56;;;;;;;9.75;5.18;;;;;;;17.17;54.81;100379.31;4949020;28;119472;-75
2021/05/09 05:48:23;;;;;;;8.75;4.82;;;;;;;17.24;54.54;100377.84;4931935;28;119161;-76
2021/05/09 05:50:51;;;;;;;8.25;4.63;;;;;;;17.31;54.37;100368.34;4929825;28;125208;-74
2021/05/09 05:53:19;;;;;;;5.90;4.28;;;;;;;17.38;54.08;100370.53;4915542;28;123015;-72
2021/05/09 05:55:46;;;;;;;5.93;4.32;;;;;;;17.43;54.08;100362.97;4945067;28;120336;-71
2021/05/09 05:58:14;;;;;;;6.20;4.20;;;;;;;17.49;53.86;100362.47;4946498;28;120912;-73
2021/05/09 06:00:41;;;;;;;8.93;4.60;;;;;;;17.57;53.78;100365.34;4946923;28;124219;-72
2021/05/09 06:03:08;;;;;;;6.72;3.80;;;;;;;17.65;53.83;100362.91;4946989;28;127543;-75
2021/05/09 06:05:34;;;;;;;6.95;4.05;;;;;;;17.74;53.39;100360.44;4936757;28;120477;-74
2021/05/09 06:08:02;;;;;;;6.75;3.72;;;;;;;17.83;53.32;100365.03;4944032;28;119620;-76
2021/05/09 06:10:28;;;;;;;5.57;3.90;;;;;;;17.91;53.45;100362.59;4939623;28;124452;-74
2021/05/09 06:12:56;;;;;;;6.38;3.80;;;;;;;18.01;53.44;100358.16;4934199;28;123738;-75
2021/05/09 06:15:23;;;;;;;6.18;4.38;;;;;;;18.13;52.95;100356.28;4917076;28;121251;-73
2021/05/09 06:17:50;;;;;;;6.55;4.03;;;;;;;18.24;52.74;100352.69;4912577;28;117399;-73
2021/05/09 06:20:18;;;;;;;10.13;4.05;;;;;;;18.34;52.44;100348.22;4933525;28;124885;-72
2021/05/09 06:22:44;;;;;;;5.30;3.60;;;;;;;18.43;52.10;100347.44;4942949;28;124760;-71
2021/05/09 06:25:12;;;;;;;8.80;3.75;;;;;;;18.54;52.14;100345.69;4941479;28;119143;-71
2021/05/09 06:27:40;;;;;;;7.90;4.00;;;;;;;18.65;51.95;100337.56;4936334;28;118798;-72
2021/05/09 06:30:08;;;;;;;6.78;3.58;;;;;;;18.75;51.88;100341.13;4917236;28;123707;-71
2021/05/09 06:32:34;;;;;;;5.85;3.50;;;;;;;18.89;51.60;100331.03;4910485;28;122752;-71
2021/05/09 06:35:02;;;;;;;4.43;3.10;;;;;;;19.00;51.24;100325.56;4930540;28;119117;-71
2021/05/09 06:37:28;;;;;;;6.35;3.00;;;;;;;19.11;50.90;100329.97;4920521;28;118108;-71
2021/05/09 06:39:55;;;;;;;5.75;3.03;;;;;;;19.20;50.53;100330.00;4930977;28;124140;-73
2021/05/09 06:42:21;;;;;;;5.95;3.17;;;;;;;19.30;50.38;100323.81;4912369;28;122622;-74
2021/05/09 06:44:55;;;;;;;5.45;3.00;;;;;;;19.42;50.18;100323.56;4930562;28;120459;-72
2021/05/09 06:47:21;;;;;;;6.13;3.25;;;;;;;19.60;50.14;100315.63;4926716;28;119699;-72
2021/05/09 06:49:48;;;;;;;6.13;2.97;;;;;;;19.78;49.71;100328.44;4936811;28;123880;-75
2021/05/09 06:52:15;;;;;;;8.02;3.45;;;;;;;19.94;49.52;100320.63;4949918;28;123756;-71
2021/05/09 06:54:42;;;;;;;4.55;2.75;;;;;;;20.11;49.18;100318.22;4948718;28;119425;-72
2021/05/09 06:57:09;;;;;;;11.68;3.22;;;;;;;20.26;48.89;100311.38;4930896;28;119425;-73
2021/05/09 06:59:35;;;;;;;4.20;3.03;;;;;;;20.42;48.40;100317.00;4947969;28;123648;-71
2021/05/09 07:02:02;;;;;;;6.38;2.80;;;;;;;20.58;47.83;100312.84;4947926;28;124272;-72
2021/05/09 07:04:28;;;;;;;4.57;2.70;;;;;;;20.73;47.95;100306.03;4935291;28;119563;-71
2021/05/09 07:06:55;;;;;;;3.90;2.95;;;;;;;20.89;47.52;100302.69;4912803;28;117756;-71
2021/05/09 07:09:22;;;;;;;4.07;2.85;;;;;;;21.07;47.65;100299.19;4941931;28;123924;-71
2021/05/09 07:11:48;;;;;;;3.35;2.70;;;;;;;21.25;47.26;100307.28;4937268;28;123831;-71
2021/05/09 07:14:15;;;;;;;6.22;2.92;;;;;;;21.42;46.99;100303.81;4926318;28;118913;-74
2021/05/09 07:16:41;;;;;;;5.60;2.90;;;;;;;21.58;46.29;100293.19;4950951;28;119179;-74
2021/05/09 07:19:09;;;;;;;3.30;2.80;;;;;;;21.70;46.17;100291.13;4950439;28;125020;-71
2021/05/09 07:21:42;;;;;;;4.70;3.00;;;;;;;21.86;46.25;100285.00;4934410;28;124251;-71
2021/05/09 07:24:09;;;;;;;4.70;2.85;;;;;;;22.05;45.29;100288.53;4924116;28;118973;-71
2021/05/09 07:26:35;;;;;;;4.10;2.85;;;;;;;22.18;45.22;100278.16;4935021;28;118593;-71
2021/05/09 07:29:03;;;;;;;3.85;2.47;;;;;;;22.28;44.61;100276.25;4933621;28;123482;-73
2021/05/09 07:31:32;;;;;;;4.50;3.00;;;;;;;22.37;44.53;100254.72;4954528;28;124279;-73
2021/05/09 07:34:01;;;;;;;5.72;2.92;;;;;;;22.44;44.37;100250.38;4930406;28;119837;-73
2021/05/09 07:36:27;;;;;;;5.18;3.20;;;;;;;22.51;44.20;100237.94;4944996;28;119714;-74
2021/05/09 07:38:54;;;;;;;5.18;2.80;;;;;;;22.60;43.69;100247.72;4951565;28;125248;-73
2021/05/09 07:41:20;;;;;;;4.15;2.70;;;;;;;22.67;43.76;100251.47;4951744;28;124294;-73
2021/05/09 07:43:48;;;;;;;3.45;2.63;;;;;;;22.72;43.67;100249.16;4933535;28;119134;-74
2021/05/09 07:46:14;;;;;;;5.00;2.80;;;;;;;22.81;43.94;100251.88;4918142;28;118188;-73
2021/05/09 07:48:41;;;;;;;6.97;3.67;;;;;;;22.94;44.11;100260.34;4934054;28;124147;-73
2021/05/09 07:51:08;;;;;;;4.97;3.70;;;;;;;23.03;43.91;100251.28;4935025;28;123011;-74
2021/05/09 07:53:35;;;;;;;5.35;4.10;;;;;;;23.10;43.90;100246.09;4932398;28;119250;-73
2021/05/09 07:56:01;;;;;;;4.47;3.90;;;;;;;23.20;43.61;100240.53;4951487;28;117962;-73
2021/05/09 07:58:28;;;;;;;7.70;4.10;;;;;;;23.30;43.98;100246.63;4924775;28;124082;-73
2021/05/09 08:00:54;;;;;;;6.05;4.20;;;;;;;23.39;43.85;100236.69;4937361;28;124188;-72
2021/05/09 08:03:21;;;;;;;6.05;4.50;;;;;;;23.49;43.91;100230.09;4919929;28;118870;-73
2021/05/09 08:05:48;;;;;;;4.80;3.92;;;;;;;23.60;43.43;100225.34;4933251;28;118068;-73
2021/05/09 08:08:14;;;;;;;7.13;3.70;;;;;;;23.69;43.23;100229.75;4953263;28;124057;-73
2021/05/09 08:10:42;;;;;;;7.43;4.35;;;;;;;23.78;43.45;100230.59;4935260;28;122840;-72
2021/05/09 08:13:11;;;;;;;6.90;4.00;;;;;;;23.89;43.17;100224.88;4947139;28;118859;-72
2021/05/09 08:15:39;;;;;;;5.25;3.65;;;;;;;24.01;43.33;100217.25;4957150;28;119072;-73
2021/05/09 08:18:05;;;;;;;4.78;3.55;;;;;;;24.14;42.54;100222.13;4918716;28;124037;-73
2021/05/09 08:20:32;;;;;;;6.30;3.65;;;;;;;24.21;42.16;100210.44;4963905;28;124549;-73
2021/05/09 08:22:59;;;;;;;4.63;3.30;;;;;;;24.26;42.02;100208.06;4960766;28;122979;-73
2021/05/09 08:25:26;;;;;;;5.00;3.10;;;;;;;24.34;41.68;100211.75;4939241;28;120157;-72
2021/05/09 08:27:53;;;;;;;5.40;4.07;;;;;;;24.38;41.98;100213.09;4967941;23;124430;-68
2021/05/09 08:30:25;;;;;;;5.15;3.40;;;;;;;24.48;41.86;100208.31;4910922;28;122747;-68
2021/05/09 08:32:59;;;;;;;6.68;3.58;;;;;;;24.55;41.60;100201.22;4937481;28;118312;-66
2021/05/09 08:35:26;;;;;;;4.28;3.30;;;;;;;24.59;41.09;100199.00;4932084;28;119279;-68
2021/05/09 08:37:53;;;;;;;4.57;3.15;;;;;;;24.62;41.66;100204.91;4922296;28;123913;-68
2021/05/09 08:40:20;;;;;;;5.15;2.95;;;;;;;24.70;41.91;100205.88;4915890;28;124180;-68
2021/05/09 08:42:50;;;;;;;3.72;2.95;;;;;;;24.77;41.60;100201.44;4910788;28;120100;-66
2021/05/09 08:45:18;;;;;;;4.15;3.20;;;;;;;24.86;41.53;100200.38;4929712;28;119351;-67
2021/05/09 08:47:45;;;;;;;5.07;3.30;;;;;;;24.93;41.10;100195.94;4928892;28;124362;-67
2021/05/09 08:50:24;;;;;;;4.32;3.15;;;;;;;24.93;40.92;100187.78;4937309;28;124061;-66
2021/05/09 08:52:52;;;;;;;5.18;3.35;;;;;;;24.96;40.97;100190.16;4928377;28;120141;-66
2021/05/09 08:55:26;;;;;;;4.85;3.17;;;;;;;25.01;40.57;100176.91;4930680;28;119659;-66
2021/05/09 08:57:57;;;;;;;4.72;3.17;;;;;;;25.01;41.06;100171.47;4939319;28;124042;-66
2021/05/09 09:00:25;;;;;;;5.97;3.20;;;;;;;25.05;41.45;100178.25;4914555;28;122814;-66
2021/05/09 09:02:56;;;;;;;7.60;3.80;;;;;;;25.15;41.49;100167.16;4911251;28;118074;-67
2021/05/09 09:05:40;;;;;;;5.10;3.30;;;;;;;25.23;41.08;100177.13;4922616;28;118254;-67
2021/05/09 09:08:10;;;;;;;5.93;3.53;;;;;;;25.29;41.53;100179.09;4909465;28;124987;-66
2021/05/09 09:10:44;;;;;;;5.93;3.50;;;;;;;25.36;41.74;100171.94;4938393;28;123961;-66
2021/05/09 09:13:27;;;;;;;4.65;3.13;;;;;;;25.51;41.59;100176.56;4922668;28;120720;-66
2021/05/09 09:16:00;;;;;;;6.90;3.30;;;;;;;25.67;41.53;100170.97;4914999;28;118839;-66
2021/05/09 09:18:45;;;;;;;6.53;3.22;;;;;;;25.80;40.85;100168.47;4916751;28;124347;-66
2021/05/09 09:21:26;;;;;;;6.95;3.08;;;;;;;25.93;41.09;100169.75;4915274;28;123080;-67
2021/05/09 09:24:11;;;;;;;6.43;3.20;;;;;;;26.03;40.19;100170.28;4928866;28;119679;-66
2021/05/09 09:26:50;;;;;;;5.38;3.50;;;;;;;26.10;40.93;100179.38;4940269;28;119160;-68
2021/05/09 09:29:36;;;;;;;6.43;3.22;;;;;;;26.18;40.54;100179.31;4935494;28;124933;-66
2021/05/09 09:32:09;;;;;;;8.35;3.30;;;;;;;26.25;40.09;100186.69;4943637;28;123961;-66
2021/05/09 09:34:38;;;;;;;5.95;3.00;;;;;;;26.23;40.02;100187.72;4923262;28;119876;-67
2021/05/09 09:37:06;;;;;;;5.45;3.33;;;;;;;26.21;39.87;100184.34;4929734;28;119183;-66
2021/05/09 09:40:00;;;;;;;6.38;3.17;;;;;;;26.17;40.17;100183.03;4939168;28;123036;-67
2021/05/09 09:42:37;;;;;;;4.65;3.28;;;;;;;26.11;40.10;100172.94;4915459;28;123183;-67
2021/05/09 09:45:13;;;;;;;5.80;3.70;;;;;;;26.09;40.45;100175.00;4936016;28;119829;-67
2021/05/09 09:47:52;;;;;;;12.30;4.00;;;;;;;26.10;40.50;100170.41;4940552;28;119359;-67
2021/05/09 09:50:39;;;;;;;6.97;3.80;;;;;;;26.09;40.84;100156.00;4898144;28;123295;-67
2021/05/09 09:53:28;;;;;;;8.15;3.90;;;;;;;26.11;40.80;100156.66;4929719;28;124237;-67
2021/05/09 09:56:11;;;;;;;5.85;3.47;;;;;;;26.17;40.43;100128.75;4910886;28;119513;-67
2021/05/09 09:58:47;;;;;;;6.95;3.53;;;;;;;26.19;40.46;100107.69;4920671;28;118797;-66
2021/05/09 10:01:16;;;;;;;7.38;3.30;;;;;;;26.25;40.67;100102.53;4939224;28;124374;-67
2021/05/09 10:03:45;;;;;;;5.45;3.20;;;;;;;26.31;40.59;100105.31;4935639;28;124240;-67
2021/05/09 10:06:12;;;;;;;8.82;3.40;;;;;;;26.40;40.60;100103.34;4894423;28;119478;-67
2021/05/09 10:08:39;;;;;;;4.45;2.75;;;;;;;26.52;40.68;100104.53;4908770;28;118196;-67
2021/05/09 10:11:06;;;;;;;9.45;3.15;;;;;;;26.63;40.72;100115.97;4931411;28;124404;-66
2021/05/09 10:13:34;;;;;;;4.72;2.40;;;;;;;26.77;40.05;100101.50;4904785;28;124233;-67
2021/05/09 10:16:02;;;;;;;7.43;2.78;;;;;;;26.87;40.11;100107.44;4921114;28;120047;-67
2021/05/09 10:18:31;;;;;;;6.55;2.45;;;;;;;26.94;39.86;100102.91;4914366;28;118958;-66
2021/05/09 10:20:59;;;;;;;8.13;2.70;;;;;;;26.97;39.59;100104.38;4914317;28;124061;-67
2021/05/09 10:23:26;;;;;;;8.43;2.53;;;;;;;26.96;39.42;100100.84;4923355;28;124213;-66
2021/05/09 10:25:58;;;;;;;7.95;2.55;;;;;;;26.94;39.77;100097.47;4910675;28;118968;-66
2021/05/09 10:28:35;;;;;;;10.60;2.58;;;;;;;26.94;39.20;100102.91;4923157;28;118866;-67
2021/05/09 10:31:03;;;;;;;7.72;2.58;;;;;;;26.96;39.36;100111.72;4920769;28;124826;-67
2021/05/09 10:33:39;;;;;;;7.07;2.40;;;;;;;27.03;39.76;100116.34;4927642;28;123751;-68
2021/05/09 10:36:30;;;;;;;7.07;2.17;;;;;;;27.10;39.54;100111.84;4904050;28;118459;-68
2021/05/09 10:39:07;;;;;;;5.95;2.40;;;;;;;27.23;39.44;100103.78;4888469;28;116773;-66
2021/05/09 10:41:36;;;;;;;4.75;2.20;;;;;;;27.35;39.23;100102.25;4909122;28;123602;-65
2021/05/09 10:44:46;;;;;;;4.80;2.47;;;;;;;27.45;39.56;100111.97;4913828;28;123366;-67
2021/05/09 10:47:31;;;;;;;5.90;2.53;;;;;;;27.57;38.81;100107.63;4891867;28;120022;-69
2021/05/09 10:50:24;;;;;;;8.40;2.47;;;;;;;27.68;38.69;100109.81;4902694;28;118178;-68
2021/05/09 10:52:52;;;;;;;4.47;2.40;;;;;;;27.77;38.74;100114.06;4927444;28;123137;-67
2021/05/09 10:55:43;;;;;;;4.88;2.50;;;;;;;27.84;38.81;100124.13;4929416;28;124467;-69
2021/05/09 10:58:16;;;;;;;5.18;2.60;;;;;;;27.92;38.14;100099.53;4902375;28;119082;-70
2021/05/09 11:00:56;;;;;;;3.83;2.72;;;;;;;27.92;37.71;100089.47;4923811;28;118148;-69
2021/05/09 11:03:45;;;;;;;7.85;2.67;;;;;;;27.86;38.09;100100.28;4924497;28;123752;-70
2021/05/09 11:06:17;;;;;;;6.35;2.53;;;;;;;27.85;38.14;100094.00;4928927;28;124528;-68
2021/05/09 11:08:51;;;;;;;7.10;2.80;;;;;;;27.89;38.24;100083.59;4927857;28;119690;-69
2021/05/09 11:11:19;;;;;;;;;;;;;;;27.89;38.78;100067.25;4929773;28;119035;-68
2021/05/09 11:14:14;;;;;;;4.82;2.75;;;;;;;27.98;38.12;100054.34;4921982;28;124644;-69
2021/05/09 11:16:42;;;;;;;;;;;;;;;28.04;38.90;100054.34;4923989;28;123700;-69
2021/05/09 11:19:13;;;;;;;7.15;2.53;;;;;;;28.16;37.82;100035.53;4921080;28;119503;-69
2021/05/09 11:21:44;;;;;;;5.15;2.55;;;;;;;28.28;37.94;100033.91;4912056;28;117865;-69
2021/05/09 11:24:22;;;;;;;4.93;2.70;;;;;;;28.41;37.88;100033.09;4930623;28;123097;-69
2021/05/09 11:26:51;;;;;;;5.20;2.60;;;;;;;28.51;37.11;100038.97;4926430;28;124642;-69